Flight Track Log - Related Links

Times and Time Zones

All times are in EDT time to prevent confusion due to time zone crossing. See the ASQ5566 flight status page for this flight to view local times or setup timezone preferences in your user account.

Time Position Orientation Groundspeed Altitude Reporting Facility
EDT Latitude Longitude Course Direction KTS MPH feet Rate Location/Type
Wed 03:36:18 PM 32.5667 -84.9167 59° Northeast 294 338 6,300  Level Atlanta TRACON
Wed 03:37:18 PM 32.6000 -84.8500 59° Northeast 291 335 9,400 1,850 Climbing Atlanta TRACON
Wed 03:38:18 PM 32.6500 -84.7500 59° Northeast 355 409 10,000 300 Climbing Atlanta TRACON
Wed 03:39:18 PM 32.7000 -84.6333 63° Northeast 384 442 10,000  Level Atlanta TRACON
Wed 03:40:00 PM 32.7620 -84.4654 56° Northeast  Level FlightAware Approximate
Wed 03:40:18 PM 32.7667 -84.5333 52° Northeast 386 444 10,000  Level Atlanta TRACON
Wed 03:41:18 PM 32.8167 -84.4167 63° Northeast 390 449 10,000  Level Atlanta TRACON
Wed 03:42:18 PM 32.8500 -84.3000 71° East 392 451 10,000  Level Atlanta TRACON
Wed 03:43:18 PM 32.9000 -84.1833 63° Northeast 390 449 10,000  Level Atlanta TRACON
Wed 03:44:18 PM 32.9333 -84.0500 73° East 392 451 10,000  Level Atlanta TRACON
Wed 03:45:18 PM 32.9667 -83.9333 71° East 393 452 10,000  Level Atlanta TRACON
Wed 03:46:18 PM 33.0167 -83.8167 63° Northeast 387 445 10,000  Level Atlanta TRACON
Wed 03:47:18 PM 33.0833 -83.7500 40° Northeast 329 379 10,000  Level Atlanta TRACON
Wed 03:48:24 PM 33.1667 -83.8000 333° Northwest 273 314 10,000 -50 Level Atlanta TRACON
Wed 03:49:18 PM 33.2000 -83.8500 309° West 279 321 9,900 -737 Descending Atlanta TRACON
Wed 03:50:18 PM 33.2667 -83.9000 328° Northwest 272 313 8,600 -905 Descending Atlanta TRACON
Wed 03:51:24 PM 33.3500 -83.9333 342° North 273 314 8,000 -286 Descending Atlanta TRACON
Wed 03:52:24 PM 33.4167 -83.9333 360° North 271 312 8,000  Level Atlanta TRACON
Wed 03:53:18 PM 33.4833 -83.9500 348° North 265 305 8,000 -209 Level Atlanta TRACON
Wed 03:54:19 PM 33.5500 -83.9500 360° North 268 308 7,600 -893 Descending Atlanta TRACON
Wed 03:55:19 PM 33.6000 -84.0000 320° Northwest 257 296 6,200 -807 Descending Atlanta TRACON
Wed 03:56:18 PM 33.6333 -84.0667 301° West 213 245 6,000 -151 Descending Atlanta TRACON
Wed 03:57:18 PM 33.6333 -84.1167 270° West 173 199 5,900 -600 Descending Atlanta TRACON
Wed 03:58:18 PM 33.6333 -84.1833 270° West 183 211 4,800 -1,041 Descending Atlanta TRACON
Wed 03:59:19 PM 33.6333 -84.2333 270° West 181 208 3,800 -942 Descending Atlanta TRACON
Wed 04:00:19 PM 33.6333 -84.3000 270° West 184 212 2,900 -900 Descending Atlanta TRACON
Wed 04:01:19 PM 33.6333 -84.3500 270° West 153 176 2,000 -800 Descending Atlanta TRACON
Wed 04:02:19 PM 33.6333 -84.4000 270° West 130 150 1,300 -700 Descending Atlanta TRACON
Wed 04:04:00 PM 33.6333 -84.4167 270° West  Level FlightAware Approximate
Wed 04:11:00 PM 33.6367 -84.4279 270° West  Level Estimated

Login

Don't have an account? Register now (free) for customized features, flight alerts, and more!